UNS100 SKBO-MPTO
Flight info
| Callsign | UNS100 |
|---|---|
| Flight time | N/A |
| Altitude | 36000 |
| Route | TOBKI1S VASIL UL423 PULOX DCT SIGUN ISOKO2A |
| Aircraft | B720/M-SDFGHRWY/C |
Departure
| Time | 2026-05-06 19:24 |
|---|---|
| Airport | El Dorado International Airport (SKBO) |
Arrival
| Time | N/A |
|---|---|
| Airport | Tocumen International Airport (MPTO) |
| Time | Latitude | Longitude | Altitude | Speed | Heading |
|---|---|---|---|---|---|
| 2026-05-06 19:17 | 4.70127 | -74.14529 | 8374 ft | 0 kts | 38° |
| 2026-05-06 19:18 | 4.70134 | -74.14523 | 8373 ft | 4 kts | 38° |
| 2026-05-06 19:19 | 4.70184 | -74.14483 | 8373 ft | 13 kts | 39° |
| 2026-05-06 19:19 | 4.70282 | -74.14407 | 8371 ft | 21 kts | 38° |
| 2026-05-06 19:19 | 4.70393 | -74.14331 | 8370 ft | 9 kts | 11° |
| 2026-05-06 19:19 | 4.70452 | -74.14365 | 8370 ft | 10 kts | 308° |
| 2026-05-06 19:20 | 4.70503 | -74.14432 | 8370 ft | 13 kts | 306° |
| 2026-05-06 19:20 | 4.70568 | -74.14512 | 8369 ft | 16 kts | 314° |
| 2026-05-06 19:20 | 4.70657 | -74.14593 | 8368 ft | 13 kts | 307° |
| 2026-05-06 19:20 | 4.70699 | -74.14689 | 8369 ft | 19 kts | 299° |
| 2026-05-06 19:21 | 4.70782 | -74.14801 | 8369 ft | 20 kts | 308° |
| 2026-05-06 19:21 | 4.70866 | -74.14909 | 8369 ft | 19 kts | 307° |
| 2026-05-06 19:21 | 4.70947 | -74.15013 | 8369 ft | 18 kts | 309° |
| 2026-05-06 19:21 | 4.71024 | -74.15115 | 8368 ft | 17 kts | 303° |
| 2026-05-06 19:22 | 4.71097 | -74.15218 | 8365 ft | 18 kts | 308° |
| 2026-05-06 19:22 | 4.71188 | -74.15297 | 8362 ft | 16 kts | 357° |
| 2026-05-06 19:22 | 4.71271 | -74.15249 | 8363 ft | 13 kts | 48° |
| 2026-05-06 19:22 | 4.71314 | -74.15181 | 8365 ft | 9 kts | 91° |
| 2026-05-06 19:23 | 4.71304 | -74.15159 | 8365 ft | 0 kts | 127° |
| 2026-05-06 19:23 | 4.71258 | -74.15097 | 8365 ft | 43 kts | 127° |
| 2026-05-06 19:23 | 4.70916 | -74.14642 | 8368 ft | 116 kts | 127° |
| 2026-05-06 19:24 | 4.70301 | -74.13834 | 8399 ft | 169 kts | 122° |
| 2026-05-06 19:24 | 4.69569 | -74.12817 | 8727 ft | 187 kts | 129° |
| 2026-05-06 19:24 | 4.68768 | -74.11748 | 9245 ft | 196 kts | 121° |
| 2026-05-06 19:24 | 4.67945 | -74.10651 | 9832 ft | 200 kts | 128° |
| 2026-05-06 19:25 | 4.67089 | -74.09547 | 10426 ft | 203 kts | 127° |
| 2026-05-06 19:25 | 4.66233 | -74.08435 | 11040 ft | 204 kts | 124° |
| 2026-05-06 19:25 | 4.65354 | -74.07323 | 11636 ft | 206 kts | 130° |
| 2026-05-06 19:25 | 4.64065 | -74.06654 | 12142 ft | 220 kts | 171° |
| 2026-05-06 19:26 | 4.62508 | -74.06974 | 12596 ft | 239 kts | 205° |
| 2026-05-06 19:26 | 4.61179 | -74.08167 | 12939 ft | 286 kts | 234° |
| 2026-05-06 19:26 | 4.60402 | -74.10144 | 13544 ft | 322 kts | 261° |
| 2026-05-06 19:26 | 4.60228 | -74.12426 | 14285 ft | 333 kts | 266° |
| 2026-05-06 19:27 | 4.60086 | -74.14741 | 15055 ft | 335 kts | 266° |
| 2026-05-06 19:27 | 4.60086 | -74.17082 | 15822 ft | 341 kts | 271° |
| 2026-05-06 19:27 | 4.60111 | -74.19427 | 16603 ft | 346 kts | 271° |
| 2026-05-06 19:27 | 4.60129 | -74.21843 | 17405 ft | 351 kts | 271° |
| 2026-05-06 19:28 | 4.60141 | -74.24316 | 18234 ft | 353 kts | 271° |
| 2026-05-06 19:28 | 4.60149 | -74.26793 | 19053 ft | 363 kts | 272° |
| 2026-05-06 19:28 | 4.60469 | -74.29334 | 19938 ft | 377 kts | 279° |
| 2026-05-06 19:28 | 4.60874 | -74.31953 | 20915 ft | 388 kts | 279° |
| 2026-05-06 19:29 | 4.61295 | -74.34653 | 21946 ft | 395 kts | 279° |
| 2026-05-06 19:29 | 4.61718 | -74.37349 | 23029 ft | 400 kts | 279° |
| 2026-05-06 19:29 | 4.62150 | -74.40110 | 24170 ft | 404 kts | 279° |
| 2026-05-06 19:29 | 4.62587 | -74.42889 | 25318 ft | 407 kts | 279° |
| 2026-05-06 19:30 | 4.63127 | -74.45657 | 26441 ft | 408 kts | 289° |
| 2026-05-06 19:30 | 4.64412 | -74.48152 | 27531 ft | 408 kts | 309° |
| 2026-05-06 19:30 | 4.66427 | -74.50102 | 28615 ft | 405 kts | 328° |
| 2026-05-06 19:30 | 4.68764 | -74.51654 | 29738 ft | 404 kts | 325° |
| 2026-05-06 19:31 | 4.70977 | -74.53329 | 30826 ft | 404 kts | 322° |
| 2026-05-06 19:31 | 4.73152 | -74.55126 | 31896 ft | 403 kts | 320° |
| 2026-05-06 19:31 | 4.77299 | -74.58843 | 34066 ft | 400 kts | 317° |
| 2026-05-06 19:32 | 4.79302 | -74.60732 | 35171 ft | 398 kts | 317° |
| 2026-05-06 19:32 | 4.81296 | -74.62650 | 36274 ft | 395 kts | 316° |
| 2026-05-06 19:32 | 4.83233 | -74.64540 | 37338 ft | 391 kts | 316° |
| 2026-05-06 19:32 | 4.85165 | -74.66447 | 38377 ft | 387 kts | 315° |
| 2026-05-06 19:33 | 4.87069 | -74.68339 | 39468 ft | 383 kts | 315° |
| 2026-05-06 19:33 | 4.88945 | -74.70212 | 40493 ft | 380 kts | 315° |
| 2026-05-06 19:33 | 4.90797 | -74.72067 | 41535 ft | 378 kts | 315° |
| 2026-05-06 19:33 | 4.92637 | -74.73923 | 42509 ft | 375 kts | 313° |
| 2026-05-06 19:34 | 4.94175 | -74.76026 | 43379 ft | 373 kts | 297° |
| 2026-05-06 19:34 | 4.95334 | -74.78320 | 44212 ft | 371 kts | 297° |
| 2026-05-06 19:34 | 4.96495 | -74.80630 | 45010 ft | 371 kts | 296° |
| 2026-05-06 19:34 | 4.97648 | -74.82950 | 45565 ft | 375 kts | 296° |
| 2026-05-06 19:35 | 4.98819 | -74.85325 | 45762 ft | 385 kts | 296° |
| 2026-05-06 19:35 | 5.00007 | -74.87746 | 45908 ft | 396 kts | 296° |
| 2026-05-06 19:35 | 5.01251 | -74.90293 | 45758 ft | 413 kts | 296° |
| 2026-05-06 19:35 | 5.02541 | -74.92944 | 45531 ft | 432 kts | 296° |
| 2026-05-06 19:36 | 5.03869 | -74.95674 | 45448 ft | 449 kts | 296° |
| 2026-05-06 19:36 | 5.05271 | -74.98563 | 45467 ft | 464 kts | 296° |
| 2026-05-06 19:36 | 5.06703 | -75.01516 | 45577 ft | 478 kts | 296° |
| 2026-05-06 19:36 | 5.08162 | -75.04525 | 45731 ft | 489 kts | 296° |
| 2026-05-06 19:37 | 5.09655 | -75.07608 | 45914 ft | 498 kts | 296° |
| 2026-05-06 19:37 | 5.11185 | -75.10769 | 45296 ft | 512 kts | 296° |
| 2026-05-06 19:37 | 5.12707 | -75.13916 | 44191 ft | 521 kts | 296° |
| 2026-05-06 19:37 | 5.13764 | -75.16099 | 43475 ft | 525 kts | 296° |
| 2026-05-06 19:38 | 5.16312 | -75.20235 | 42099 ft | 527 kts | 309° |
| 2026-05-06 19:38 | 5.18633 | -75.23071 | 41171 ft | 530 kts | 309° |
| 2026-05-06 19:38 | 5.20986 | -75.25912 | 40316 ft | 529 kts | 310° |
| 2026-05-06 19:38 | 5.23344 | -75.28738 | 39550 ft | 527 kts | 310° |
| 2026-05-06 19:39 | 5.25709 | -75.31557 | 38813 ft | 522 kts | 310° |
| 2026-05-06 19:39 | 5.28031 | -75.34318 | 38147 ft | 518 kts | 310° |
| 2026-05-06 19:39 | 5.30360 | -75.37082 | 37547 ft | 515 kts | 310° |
| 2026-05-06 19:39 | 5.32645 | -75.39788 | 36972 ft | 511 kts | 310° |
| 2026-05-06 19:40 | 5.34923 | -75.42489 | 36404 ft | 507 kts | 310° |
| 2026-05-06 19:40 | 5.37195 | -75.45177 | 35845 ft | 504 kts | 310° |
| 2026-05-06 19:40 | 5.39461 | -75.47859 | 35293 ft | 502 kts | 310° |
| 2026-05-06 19:40 | 5.41732 | -75.50548 | 35217 ft | 496 kts | 311° |
| 2026-05-06 19:41 | 5.46226 | -75.55868 | 35272 ft | 502 kts | 311° |
| 2026-05-06 19:41 | 5.50751 | -75.61224 | 35297 ft | 502 kts | 310° |
| 2026-05-06 19:42 | 5.55265 | -75.66571 | 35322 ft | 503 kts | 310° |
| 2026-05-06 19:42 | 5.59767 | -75.71905 | 35341 ft | 503 kts | 310° |
| 2026-05-06 19:43 | 5.64303 | -75.77278 | 35353 ft | 502 kts | 310° |
| 2026-05-06 19:43 | 5.68785 | -75.82592 | 35343 ft | 502 kts | 310° |
| 2026-05-06 19:44 | 5.73333 | -75.87981 | 35323 ft | 503 kts | 310° |
| 2026-05-06 19:44 | 5.77826 | -75.93311 | 35307 ft | 503 kts | 310° |
| 2026-05-06 19:45 | 5.82370 | -75.98701 | 35284 ft | 503 kts | 310° |
| 2026-05-06 19:45 | 5.86872 | -76.04042 | 35273 ft | 504 kts | 310° |
| 2026-05-06 19:46 | 5.91397 | -76.09412 | 35304 ft | 503 kts | 310° |
| 2026-05-06 19:46 | 5.95929 | -76.14793 | 35340 ft | 502 kts | 310° |
| 2026-05-06 19:47 | 6.00413 | -76.20117 | 35402 ft | 502 kts | 310° |
| 2026-05-06 19:47 | 6.04948 | -76.25504 | 35441 ft | 503 kts | 310° |
| 2026-05-06 19:48 | 6.09474 | -76.30881 | 35374 ft | 503 kts | 310° |
| 2026-05-06 19:48 | 6.13989 | -76.36247 | 35276 ft | 504 kts | 310° |
| 2026-05-06 19:49 | 6.18497 | -76.41608 | 35212 ft | 505 kts | 310° |
| 2026-05-06 19:49 | 6.23040 | -76.47009 | 35116 ft | 504 kts | 310° |
| 2026-05-06 19:50 | 6.27573 | -76.52400 | 35023 ft | 504 kts | 310° |
| 2026-05-06 19:50 | 6.32077 | -76.57760 | 34987 ft | 505 kts | 310° |
| 2026-05-06 19:51 | 6.36607 | -76.63151 | 34958 ft | 506 kts | 310° |
| 2026-05-06 19:51 | 6.41162 | -76.68574 | 34933 ft | 505 kts | 310° |
| 2026-05-06 19:52 | 6.45689 | -76.73966 | 34908 ft | 506 kts | 310° |
| 2026-05-06 19:52 | 6.50226 | -76.79370 | 34894 ft | 505 kts | 310° |
| 2026-05-06 19:53 | 6.54742 | -76.84752 | 34901 ft | 506 kts | 310° |
| 2026-05-06 19:53 | 6.59281 | -76.90163 | 34901 ft | 507 kts | 310° |
| 2026-05-06 19:54 | 6.63837 | -76.95595 | 34888 ft | 507 kts | 310° |
| 2026-05-06 19:54 | 6.68363 | -77.00994 | 34874 ft | 506 kts | 310° |
| 2026-05-06 19:55 | 6.72915 | -77.06426 | 34876 ft | 506 kts | 310° |
| 2026-05-06 19:55 | 6.77434 | -77.11819 | 34876 ft | 507 kts | 310° |
| 2026-05-06 19:56 | 6.81995 | -77.17263 | 34887 ft | 507 kts | 310° |
| 2026-05-06 19:56 | 6.86536 | -77.22687 | 34898 ft | 506 kts | 310° |
| 2026-05-06 19:57 | 6.91243 | -77.28310 | 34900 ft | 505 kts | 310° |
| 2026-05-06 19:57 | 6.95947 | -77.33932 | 34900 ft | 506 kts | 310° |
| 2026-05-06 19:58 | 7.00548 | -77.39432 | 34901 ft | 505 kts | 310° |
| 2026-05-06 19:58 | 7.05089 | -77.44863 | 34903 ft | 506 kts | 310° |
| 2026-05-06 19:59 | 7.09685 | -77.50362 | 34906 ft | 505 kts | 310° |
| 2026-05-06 19:59 | 7.14342 | -77.55935 | 34895 ft | 505 kts | 310° |
| 2026-05-06 20:00 | 7.18951 | -77.61451 | 34912 ft | 504 kts | 310° |
| 2026-05-06 20:00 | 7.23568 | -77.66981 | 34912 ft | 503 kts | 310° |
| 2026-05-06 20:01 | 7.28278 | -77.72623 | 34916 ft | 504 kts | 310° |
| 2026-05-06 20:01 | 7.32938 | -77.78207 | 34914 ft | 504 kts | 310° |
| 2026-05-06 20:02 | 7.37512 | -77.83691 | 34906 ft | 504 kts | 310° |
| 2026-05-06 20:02 | 7.42147 | -77.89108 | 34902 ft | 503 kts | 311° |
| 2026-05-06 20:03 | 7.46876 | -77.94585 | 34891 ft | 503 kts | 311° |
| 2026-05-06 20:03 | 7.51531 | -77.99983 | 34890 ft | 502 kts | 311° |
| 2026-05-06 20:04 | 7.56182 | -78.05378 | 34901 ft | 502 kts | 311° |
| 2026-05-06 20:04 | 7.60878 | -78.10828 | 34918 ft | 503 kts | 311° |
| 2026-05-06 20:05 | 7.65535 | -78.16235 | 34939 ft | 503 kts | 311° |
| 2026-05-06 20:05 | 7.70165 | -78.21613 | 34964 ft | 503 kts | 311° |
| 2026-05-06 20:06 | 7.74795 | -78.26992 | 34988 ft | 503 kts | 311° |
| 2026-05-06 20:06 | 7.79429 | -78.32381 | 34867 ft | 503 kts | 311° |
| 2026-05-06 20:07 | 7.81719 | -78.35043 | 34597 ft | 501 kts | 311° |
| 2026-05-06 20:07 | 7.83988 | -78.37681 | 34325 ft | 499 kts | 311° |
| 2026-05-06 20:07 | 7.86244 | -78.40305 | 34055 ft | 497 kts | 311° |
| 2026-05-06 20:07 | 7.88545 | -78.42981 | 33779 ft | 496 kts | 311° |
| 2026-05-06 20:08 | 7.90798 | -78.45603 | 33512 ft | 495 kts | 311° |
| 2026-05-06 20:08 | 7.93101 | -78.48283 | 33011 ft | 496 kts | 311° |
| 2026-05-06 20:08 | 7.95340 | -78.50890 | 32406 ft | 492 kts | 311° |
| 2026-05-06 20:08 | 7.97637 | -78.53564 | 31840 ft | 485 kts | 311° |
| 2026-05-06 20:09 | 7.99924 | -78.56227 | 31274 ft | 479 kts | 311° |
| 2026-05-06 20:09 | 8.02209 | -78.58890 | 30708 ft | 474 kts | 311° |
| 2026-05-06 20:09 | 8.04445 | -78.61494 | 30162 ft | 470 kts | 311° |
| 2026-05-06 20:09 | 8.06622 | -78.64031 | 29624 ft | 466 kts | 312° |
| 2026-05-06 20:10 | 8.08734 | -78.66492 | 29105 ft | 462 kts | 311° |
| 2026-05-06 20:10 | 8.10815 | -78.68918 | 28590 ft | 458 kts | 311° |
| 2026-05-06 20:10 | 8.12915 | -78.71367 | 28084 ft | 455 kts | 312° |
| 2026-05-06 20:10 | 8.14963 | -78.73754 | 27595 ft | 452 kts | 312° |
| 2026-05-06 20:11 | 8.17022 | -78.76155 | 27100 ft | 450 kts | 312° |
| 2026-05-06 20:11 | 8.19049 | -78.78521 | 26610 ft | 447 kts | 312° |
| 2026-05-06 20:11 | 8.21081 | -78.80891 | 26120 ft | 444 kts | 312° |
| 2026-05-06 20:11 | 8.23119 | -78.83219 | 25624 ft | 439 kts | 317° |
| 2026-05-06 20:12 | 8.25319 | -78.85338 | 25131 ft | 435 kts | 318° |
| 2026-05-06 20:12 | 8.27515 | -78.87440 | 24643 ft | 433 kts | 318° |
| 2026-05-06 20:12 | 8.29688 | -78.89516 | 24161 ft | 430 kts | 319° |
| 2026-05-06 20:12 | 8.31862 | -78.91592 | 23678 ft | 427 kts | 319° |
| 2026-05-06 20:13 | 8.33997 | -78.93627 | 23205 ft | 424 kts | 319° |
| 2026-05-06 20:13 | 8.36145 | -78.95673 | 22731 ft | 422 kts | 319° |
| 2026-05-06 20:13 | 8.38263 | -78.97692 | 22261 ft | 420 kts | 319° |
| 2026-05-06 20:13 | 8.40403 | -78.99731 | 21799 ft | 417 kts | 319° |
| 2026-05-06 20:14 | 8.42490 | -79.01720 | 21349 ft | 415 kts | 319° |
| 2026-05-06 20:14 | 8.44594 | -79.03723 | 20892 ft | 413 kts | 319° |
| 2026-05-06 20:14 | 8.46678 | -79.05709 | 20444 ft | 410 kts | 319° |
| 2026-05-06 20:14 | 8.48749 | -79.07682 | 19995 ft | 408 kts | 319° |
| 2026-05-06 20:15 | 8.50809 | -79.09646 | 19542 ft | 405 kts | 319° |
| 2026-05-06 20:15 | 8.52855 | -79.11597 | 19096 ft | 403 kts | 319° |
| 2026-05-06 20:15 | 8.54905 | -79.13551 | 18650 ft | 402 kts | 319° |
| 2026-05-06 20:15 | 8.56915 | -79.15467 | 18206 ft | 400 kts | 319° |
| 2026-05-06 20:16 | 8.58954 | -79.17412 | 17764 ft | 398 kts | 319° |
| 2026-05-06 20:16 | 8.60957 | -79.19324 | 17330 ft | 396 kts | 319° |
| 2026-05-06 20:16 | 8.62953 | -79.21227 | 16888 ft | 394 kts | 319° |
| 2026-05-06 20:16 | 8.64949 | -79.23131 | 16447 ft | 391 kts | 319° |
| 2026-05-06 20:17 | 8.66917 | -79.25024 | 15768 ft | 393 kts | 316° |
| 2026-05-06 20:17 | 8.68669 | -79.27148 | 15017 ft | 391 kts | 312° |
| 2026-05-06 20:17 | 8.70390 | -79.29247 | 14287 ft | 389 kts | 311° |
| 2026-05-06 20:17 | 8.72104 | -79.31347 | 13546 ft | 386 kts | 311° |
| 2026-05-06 20:18 | 8.73978 | -79.33649 | 12795 ft | 383 kts | 311° |
| 2026-05-06 20:18 | 8.75861 | -79.35969 | 12109 ft | 380 kts | 310° |
| 2026-05-06 20:18 | 8.77729 | -79.38274 | 11468 ft | 377 kts | 310° |
| 2026-05-06 20:18 | 8.79806 | -79.40492 | 10816 ft | 369 kts | 327° |
| 2026-05-06 20:19 | 8.82542 | -79.41547 | 10081 ft | 359 kts | 356° |
| 2026-05-06 20:19 | 8.85141 | -79.41417 | 9323 ft | 352 kts | 6° |
| 2026-05-06 20:19 | 8.87569 | -79.41619 | 8590 ft | 352 kts | 343° |
| 2026-05-06 20:19 | 8.89705 | -79.42911 | 7841 ft | 354 kts | 316° |
| 2026-05-06 20:20 | 8.91014 | -79.44973 | 7119 ft | 355 kts | 290° |
| 2026-05-06 20:20 | 8.91286 | -79.47561 | 6233 ft | 347 kts | 262° |
| 2026-05-06 20:20 | 8.90417 | -79.49781 | 5351 ft | 335 kts | 233° |
| 2026-05-06 20:20 | 8.88718 | -79.51266 | 4497 ft | 324 kts | 207° |
| 2026-05-06 20:21 | 8.86716 | -79.52293 | 3796 ft | 316 kts | 207° |
| 2026-05-06 20:21 | 8.84811 | -79.53257 | 3861 ft | 286 kts | 207° |
| 2026-05-06 20:21 | 8.83050 | -79.54144 | 3986 ft | 282 kts | 207° |
| 2026-05-06 20:21 | 8.81253 | -79.55051 | 3995 ft | 285 kts | 207° |
| 2026-05-06 20:22 | 8.79418 | -79.55905 | 3989 ft | 287 kts | 194° |
| 2026-05-06 20:22 | 8.77450 | -79.55881 | 4030 ft | 282 kts | 159° |
| 2026-05-06 20:22 | 8.75851 | -79.54820 | 4032 ft | 276 kts | 124° |
| 2026-05-06 20:22 | 8.75137 | -79.53123 | 4033 ft | 252 kts | 90° |
| 2026-05-06 20:23 | 8.75521 | -79.51494 | 3885 ft | 236 kts | 50° |
| 2026-05-06 20:23 | 8.76785 | -79.50481 | 4069 ft | 237 kts | 31° |
| 2026-05-06 20:23 | 8.78217 | -79.49630 | 4058 ft | 235 kts | 24° |
| 2026-05-06 20:23 | 8.79835 | -79.49435 | 4037 ft | 239 kts | 354° |
| 2026-05-06 20:24 | 8.81480 | -79.49646 | 4008 ft | 236 kts | 354° |
| 2026-05-06 20:24 | 8.83146 | -79.49856 | 3926 ft | 239 kts | 355° |
| 2026-05-06 20:24 | 8.84778 | -79.50053 | 3806 ft | 234 kts | 354° |
| 2026-05-06 20:24 | 8.86405 | -79.49898 | 3810 ft | 234 kts | 26° |
| 2026-05-06 20:25 | 8.87786 | -79.49037 | 3830 ft | 235 kts | 30° |
| 2026-05-06 20:25 | 8.89200 | -79.48169 | 3524 ft | 233 kts | 30° |
| 2026-05-06 20:25 | 8.90547 | -79.47360 | 3133 ft | 215 kts | 30° |
| 2026-05-06 20:25 | 8.91826 | -79.46606 | 2814 ft | 210 kts | 30° |
| 2026-05-06 20:26 | 8.93100 | -79.45865 | 2516 ft | 212 kts | 29° |
| 2026-05-06 20:26 | 8.94371 | -79.45133 | 2259 ft | 214 kts | 29° |
| 2026-05-06 20:26 | 8.95643 | -79.44407 | 1966 ft | 206 kts | 29° |